sensor_id;sensor_type;location;lat;lon;timestamp;P1;durP1;ratioP1;P2;durP2;ratioP2
14883;SDS011;7534;50.762;7.000;2023-03-05T00:01:06;4.93;;;2.10;;
14883;SDS011;7534;50.762;7.000;2023-03-05T00:03:35;5.00;;;1.97;;
14883;SDS011;7534;50.762;7.000;2023-03-05T00:06:01;10.17;;;2.40;;
14883;SDS011;7534;50.762;7.000;2023-03-05T00:08:28;3.23;;;1.97;;
14883;SDS011;7534;50.762;7.000;2023-03-05T00:10:58;5.23;;;2.30;;
14883;SDS011;7534;50.762;7.000;2023-03-05T00:13:28;5.20;;;2.23;;
14883;SDS011;7534;50.762;7.000;2023-03-05T00:15:55;6.00;;;1.90;;
14883;SDS011;7534;50.762;7.000;2023-03-05T00:18:21;5.13;;;2.30;;
14883;SDS011;7534;50.762;7.000;2023-03-05T00:20:48;4.87;;;1.77;;
14883;SDS011;7534;50.762;7.000;2023-03-05T00:23:14;6.83;;;2.10;;
14883;SDS011;7534;50.762;7.000;2023-03-05T00:25:41;5.27;;;1.93;;
14883;SDS011;7534;50.762;7.000;2023-03-05T00:28:07;4.40;;;2.07;;
14883;SDS011;7534;50.762;7.000;2023-03-05T00:30:33;5.50;;;2.00;;
14883;SDS011;7534;50.762;7.000;2023-03-05T00:32:59;5.13;;;1.80;;
14883;SDS011;7534;50.762;7.000;2023-03-05T00:35:26;4.63;;;2.00;;
14883;SDS011;7534;50.762;7.000;2023-03-05T00:37:52;4.20;;;1.90;;
14883;SDS011;7534;50.762;7.000;2023-03-05T00:40:18;5.30;;;1.93;;
14883;SDS011;7534;50.762;7.000;2023-03-05T00:42:44;5.60;;;1.80;;
14883;SDS011;7534;50.762;7.000;2023-03-05T00:45:10;7.83;;;1.83;;
14883;SDS011;7534;50.762;7.000;2023-03-05T00:47:36;4.70;;;1.87;;
14883;SDS011;7534;50.762;7.000;2023-03-05T00:50:03;5.73;;;1.80;;
14883;SDS011;7534;50.762;7.000;2023-03-05T00:52:30;6.63;;;1.90;;
14883;SDS011;7534;50.762;7.000;2023-03-05T00:54:56;6.70;;;1.80;;
14883;SDS011;7534;50.762;7.000;2023-03-05T00:57:22;5.03;;;2.07;;
14883;SDS011;7534;50.762;7.000;2023-03-05T00:59:47;4.33;;;1.90;;
14883;SDS011;7534;50.762;7.000;2023-03-05T01:02:13;5.17;;;2.37;;
14883;SDS011;7534;50.762;7.000;2023-03-05T01:04:39;4.43;;;1.87;;
14883;SDS011;7534;50.762;7.000;2023-03-05T01:07:05;5.73;;;2.07;;
14883;SDS011;7534;50.762;7.000;2023-03-05T01:09:31;5.90;;;2.10;;
14883;SDS011;7534;50.762;7.000;2023-03-05T01:11:56;4.47;;;1.90;;
14883;SDS011;7534;50.762;7.000;2023-03-05T01:14:24;7.33;;;1.87;;
14883;SDS011;7534;50.762;7.000;2023-03-05T01:16:51;5.50;;;1.97;;
14883;SDS011;7534;50.762;7.000;2023-03-05T01:19:17;4.50;;;1.70;;
14883;SDS011;7534;50.762;7.000;2023-03-05T01:21:43;4.90;;;2.00;;
14883;SDS011;7534;50.762;7.000;2023-03-05T01:24:09;8.23;;;1.80;;
14883;SDS011;7534;50.762;7.000;2023-03-05T01:26:35;8.43;;;2.00;;
14883;SDS011;7534;50.762;7.000;2023-03-05T01:29:01;6.47;;;2.13;;
14883;SDS011;7534;50.762;7.000;2023-03-05T01:31:28;8.60;;;2.40;;
14883;SDS011;7534;50.762;7.000;2023-03-05T01:33:54;7.27;;;2.10;;
14883;SDS011;7534;50.762;7.000;2023-03-05T01:36:20;11.20;;;2.60;;
14883;SDS011;7534;50.762;7.000;2023-03-05T01:38:49;6.90;;;2.27;;
14883;SDS011;7534;50.762;7.000;2023-03-05T01:41:16;12.23;;;2.33;;
14883;SDS011;7534;50.762;7.000;2023-03-05T01:43:43;5.60;;;2.40;;
14883;SDS011;7534;50.762;7.000;2023-03-05T01:49:05;6.13;;;2.17;;
14883;SDS011;7534;50.762;7.000;2023-03-05T01:54:23;4.77;;;2.20;;
14883;SDS011;7534;50.762;7.000;2023-03-05T01:56:58;6.40;;;2.03;;
14883;SDS011;7534;50.762;7.000;2023-03-05T01:59:33;8.73;;;2.33;;
14883;SDS011;7534;50.762;7.000;2023-03-05T02:02:01;9.23;;;2.93;;
14883;SDS011;7534;50.762;7.000;2023-03-05T02:04:33;3.87;;;2.20;;
14883;SDS011;7534;50.762;7.000;2023-03-05T02:07:15;5.70;;;2.03;;
14883;SDS011;7534;50.762;7.000;2023-03-05T02:09:41;6.30;;;1.80;;
14883;SDS011;7534;50.762;7.000;2023-03-05T02:12:07;6.63;;;2.07;;
14883;SDS011;7534;50.762;7.000;2023-03-05T02:14:35;7.40;;;1.90;;
14883;SDS011;7534;50.762;7.000;2023-03-05T02:17:04;5.27;;;1.77;;
14883;SDS011;7534;50.762;7.000;2023-03-05T02:19:44;6.03;;;1.80;;
14883;SDS011;7534;50.762;7.000;2023-03-05T02:22:19;5.83;;;2.10;;
14883;SDS011;7534;50.762;7.000;2023-03-05T02:24:48;8.00;;;2.30;;
14883;SDS011;7534;50.762;7.000;2023-03-05T02:27:15;6.90;;;2.07;;
14883;SDS011;7534;50.762;7.000;2023-03-05T02:29:44;6.63;;;2.13;;
14883;SDS011;7534;50.762;7.000;2023-03-05T02:32:11;7.20;;;1.87;;
14883;SDS011;7534;50.762;7.000;2023-03-05T02:34:37;5.83;;;1.83;;
14883;SDS011;7534;50.762;7.000;2023-03-05T02:37:04;6.67;;;1.90;;
14883;SDS011;7534;50.762;7.000;2023-03-05T02:39:33;5.30;;;1.67;;
14883;SDS011;7534;50.762;7.000;2023-03-05T02:41:58;5.60;;;1.80;;
14883;SDS011;7534;50.762;7.000;2023-03-05T02:44:24;6.77;;;2.40;;
14883;SDS011;7534;50.762;7.000;2023-03-05T02:46:51;5.20;;;1.87;;
14883;SDS011;7534;50.762;7.000;2023-03-05T02:49:16;7.77;;;2.03;;
14883;SDS011;7534;50.762;7.000;2023-03-05T02:51:42;4.80;;;1.90;;
14883;SDS011;7534;50.762;7.000;2023-03-05T02:54:08;8.57;;;1.73;;
14883;SDS011;7534;50.762;7.000;2023-03-05T02:56:34;5.83;;;1.80;;
14883;SDS011;7534;50.762;7.000;2023-03-05T02:59:02;5.37;;;2.10;;
14883;SDS011;7534;50.762;7.000;2023-03-05T03:01:27;5.57;;;1.73;;
14883;SDS011;7534;50.762;7.000;2023-03-05T03:03:53;4.83;;;1.77;;
14883;SDS011;7534;50.762;7.000;2023-03-05T03:06:19;6.27;;;1.63;;
14883;SDS011;7534;50.762;7.000;2023-03-05T03:08:45;4.03;;;1.77;;
14883;SDS011;7534;50.762;7.000;2023-03-05T03:11:11;6.30;;;1.83;;
14883;SDS011;7534;50.762;7.000;2023-03-05T03:13:38;4.17;;;1.40;;
14883;SDS011;7534;50.762;7.000;2023-03-05T03:16:06;6.03;;;1.80;;
14883;SDS011;7534;50.762;7.000;2023-03-05T03:18:35;6.43;;;1.97;;
14883;SDS011;7534;50.762;7.000;2023-03-05T03:21:00;4.30;;;1.63;;
14883;SDS011;7534;50.762;7.000;2023-03-05T03:23:27;3.40;;;1.70;;
14883;SDS011;7534;50.762;7.000;2023-03-05T03:25:53;6.23;;;1.87;;
14883;SDS011;7534;50.762;7.000;2023-03-05T03:28:18;5.43;;;1.63;;
14883;SDS011;7534;50.762;7.000;2023-03-05T03:30:44;4.07;;;1.70;;
14883;SDS011;7534;50.762;7.000;2023-03-05T03:33:10;4.37;;;1.63;;
14883;SDS011;7534;50.762;7.000;2023-03-05T03:35:36;6.43;;;1.77;;
14883;SDS011;7534;50.762;7.000;2023-03-05T03:38:02;4.00;;;1.57;;
14883;SDS011;7534;50.762;7.000;2023-03-05T03:40:29;4.47;;;1.50;;
14883;SDS011;7534;50.762;7.000;2023-03-05T03:42:55;5.17;;;1.60;;
14883;SDS011;7534;50.762;7.000;2023-03-05T03:45:20;5.40;;;2.40;;
14883;SDS011;7534;50.762;7.000;2023-03-05T03:47:47;7.10;;;1.90;;
14883;SDS011;7534;50.762;7.000;2023-03-05T03:50:15;5.23;;;2.00;;
14883;SDS011;7534;50.762;7.000;2023-03-05T03:52:42;5.87;;;2.10;;
14883;SDS011;7534;50.762;7.000;2023-03-05T03:55:09;6.70;;;1.80;;
14883;SDS011;7534;50.762;7.000;2023-03-05T03:57:35;3.83;;;2.00;;
14883;SDS011;7534;50.762;7.000;2023-03-05T04:00:01;8.07;;;1.97;;
14883;SDS011;7534;50.762;7.000;2023-03-05T04:02:32;6.07;;;1.90;;
14883;SDS011;7534;50.762;7.000;2023-03-05T04:04:58;5.13;;;1.80;;
14883;SDS011;7534;50.762;7.000;2023-03-05T04:07:23;4.63;;;2.37;;
14883;SDS011;7534;50.762;7.000;2023-03-05T04:09:49;4.87;;;1.90;;
14883;SDS011;7534;50.762;7.000;2023-03-05T04:12:15;3.97;;;1.77;;
14883;SDS011;7534;50.762;7.000;2023-03-05T04:14:45;3.87;;;1.90;;
14883;SDS011;7534;50.762;7.000;2023-03-05T04:17:12;6.07;;;2.27;;
14883;SDS011;7534;50.762;7.000;2023-03-05T04:19:39;6.17;;;2.40;;
14883;SDS011;7534;50.762;7.000;2023-03-05T04:22:07;6.40;;;2.27;;
14883;SDS011;7534;50.762;7.000;2023-03-05T04:24:37;6.67;;;2.20;;
14883;SDS011;7534;50.762;7.000;2023-03-05T04:27:03;4.83;;;1.80;;
14883;SDS011;7534;50.762;7.000;2023-03-05T04:29:29;5.47;;;1.90;;
14883;SDS011;7534;50.762;7.000;2023-03-05T04:31:55;5.63;;;2.00;;
14883;SDS011;7534;50.762;7.000;2023-03-05T04:34:21;9.03;;;2.20;;
14883;SDS011;7534;50.762;7.000;2023-03-05T04:36:47;5.67;;;2.10;;
14883;SDS011;7534;50.762;7.000;2023-03-05T04:39:12;6.47;;;2.20;;
14883;SDS011;7534;50.762;7.000;2023-03-05T04:41:38;5.63;;;1.80;;
14883;SDS011;7534;50.762;7.000;2023-03-05T04:44:04;4.63;;;2.17;;
14883;SDS011;7534;50.762;7.000;2023-03-05T04:46:30;6.83;;;2.10;;
14883;SDS011;7534;50.762;7.000;2023-03-05T04:48:56;6.47;;;2.30;;
14883;SDS011;7534;50.762;7.000;2023-03-05T04:51:22;6.00;;;2.00;;
14883;SDS011;7534;50.762;7.000;2023-03-05T04:53:48;6.90;;;2.20;;
14883;SDS011;7534;50.762;7.000;2023-03-05T04:56:14;6.33;;;2.20;;
14883;SDS011;7534;50.762;7.000;2023-03-05T04:58:40;4.03;;;2.03;;
14883;SDS011;7534;50.762;7.000;2023-03-05T05:01:05;8.40;;;2.83;;
14883;SDS011;7534;50.762;7.000;2023-03-05T05:03:32;7.20;;;2.93;;
14883;SDS011;7534;50.762;7.000;2023-03-05T05:05:59;5.30;;;2.20;;
14883;SDS011;7534;50.762;7.000;2023-03-05T05:08:26;8.53;;;2.80;;
14883;SDS011;7534;50.762;7.000;2023-03-05T05:10:56;4.10;;;2.00;;
14883;SDS011;7534;50.762;7.000;2023-03-05T05:13:28;5.00;;;2.10;;
14883;SDS011;7534;50.762;7.000;2023-03-05T05:15:55;5.27;;;1.97;;
14883;SDS011;7534;50.762;7.000;2023-03-05T05:18:23;6.60;;;2.20;;
14883;SDS011;7534;50.762;7.000;2023-03-05T05:20:50;4.07;;;1.73;;
14883;SDS011;7534;50.762;7.000;2023-03-05T05:23:16;3.90;;;1.90;;
14883;SDS011;7534;50.762;7.000;2023-03-05T05:25:42;8.53;;;1.77;;
14883;SDS011;7534;50.762;7.000;2023-03-05T05:28:09;5.57;;;1.87;;
14883;SDS011;7534;50.762;7.000;2023-03-05T05:30:35;6.43;;;2.00;;
14883;SDS011;7534;50.762;7.000;2023-03-05T05:33:03;6.10;;;1.80;;
14883;SDS011;7534;50.762;7.000;2023-03-05T05:35:28;4.83;;;1.80;;
14883;SDS011;7534;50.762;7.000;2023-03-05T05:37:54;4.40;;;1.73;;
14883;SDS011;7534;50.762;7.000;2023-03-05T05:40:20;5.27;;;1.80;;
14883;SDS011;7534;50.762;7.000;2023-03-05T05:42:45;7.60;;;1.70;;
14883;SDS011;7534;50.762;7.000;2023-03-05T05:45:11;5.23;;;2.10;;
14883;SDS011;7534;50.762;7.000;2023-03-05T05:47:37;6.50;;;1.83;;
14883;SDS011;7534;50.762;7.000;2023-03-05T05:50:03;3.63;;;1.53;;
14883;SDS011;7534;50.762;7.000;2023-03-05T05:52:30;7.33;;;2.00;;
14883;SDS011;7534;50.762;7.000;2023-03-05T05:54:55;7.57;;;1.90;;
14883;SDS011;7534;50.762;7.000;2023-03-05T05:57:21;5.83;;;1.90;;
14883;SDS011;7534;50.762;7.000;2023-03-05T05:59:47;5.07;;;1.80;;
14883;SDS011;7534;50.762;7.000;2023-03-05T06:02:13;4.03;;;1.90;;
14883;SDS011;7534;50.762;7.000;2023-03-05T06:04:38;3.87;;;1.70;;
14883;SDS011;7534;50.762;7.000;2023-03-05T06:07:05;4.63;;;1.97;;
14883;SDS011;7534;50.762;7.000;2023-03-05T06:09:33;6.17;;;2.10;;
14883;SDS011;7534;50.762;7.000;2023-03-05T06:12:00;3.70;;;1.70;;
14883;SDS011;7534;50.762;7.000;2023-03-05T06:14:26;6.80;;;1.90;;
14883;SDS011;7534;50.762;7.000;2023-03-05T06:16:52;7.27;;;1.80;;
14883;SDS011;7534;50.762;7.000;2023-03-05T06:19:17;7.60;;;2.23;;
14883;SDS011;7534;50.762;7.000;2023-03-05T06:21:43;5.57;;;2.20;;
14883;SDS011;7534;50.762;7.000;2023-03-05T06:24:09;4.07;;;1.90;;
14883;SDS011;7534;50.762;7.000;2023-03-05T06:26:36;5.40;;;1.80;;
14883;SDS011;7534;50.762;7.000;2023-03-05T06:29:02;6.93;;;2.00;;
14883;SDS011;7534;50.762;7.000;2023-03-05T06:31:28;5.67;;;2.30;;
14883;SDS011;7534;50.762;7.000;2023-03-05T06:33:55;6.37;;;1.90;;
14883;SDS011;7534;50.762;7.000;2023-03-05T06:36:25;6.37;;;2.10;;
14883;SDS011;7534;50.762;7.000;2023-03-05T06:38:51;5.00;;;2.27;;
14883;SDS011;7534;50.762;7.000;2023-03-05T06:41:23;5.97;;;1.90;;
14883;SDS011;7534;50.762;7.000;2023-03-05T06:43:54;7.10;;;1.90;;
14883;SDS011;7534;50.762;7.000;2023-03-05T06:46:24;3.53;;;1.90;;
14883;SDS011;7534;50.762;7.000;2023-03-05T06:48:54;6.73;;;2.10;;
14883;SDS011;7534;50.762;7.000;2023-03-05T06:51:23;5.30;;;2.10;;
14883;SDS011;7534;50.762;7.000;2023-03-05T06:53:53;5.50;;;2.10;;
14883;SDS011;7534;50.762;7.000;2023-03-05T06:56:23;5.00;;;2.10;;
14883;SDS011;7534;50.762;7.000;2023-03-05T06:58:49;6.23;;;2.23;;
14883;SDS011;7534;50.762;7.000;2023-03-05T07:01:16;7.00;;;2.50;;
14883;SDS011;7534;50.762;7.000;2023-03-05T07:03:43;8.20;;;2.20;;
14883;SDS011;7534;50.762;7.000;2023-03-05T07:06:11;5.03;;;2.00;;
14883;SDS011;7534;50.762;7.000;2023-03-05T07:08:38;8.63;;;2.93;;
14883;SDS011;7534;50.762;7.000;2023-03-05T07:11:10;7.83;;;2.63;;
14883;SDS011;7534;50.762;7.000;2023-03-05T07:13:42;4.13;;;2.13;;
14883;SDS011;7534;50.762;7.000;2023-03-05T07:16:12;10.03;;;2.80;;
14883;SDS011;7534;50.762;7.000;2023-03-05T07:18:45;6.60;;;2.73;;
14883;SDS011;7534;50.762;7.000;2023-03-05T07:21:14;7.97;;;2.80;;
14883;SDS011;7534;50.762;7.000;2023-03-05T07:23:43;5.43;;;2.57;;
14883;SDS011;7534;50.762;7.000;2023-03-05T07:26:11;6.00;;;2.40;;
14883;SDS011;7534;50.762;7.000;2023-03-05T07:28:37;11.43;;;2.60;;
14883;SDS011;7534;50.762;7.000;2023-03-05T07:31:04;11.17;;;2.87;;
14883;SDS011;7534;50.762;7.000;2023-03-05T07:33:43;10.23;;;3.00;;
14883;SDS011;7534;50.762;7.000;2023-03-05T07:36:11;7.80;;;2.57;;
14883;SDS011;7534;50.762;7.000;2023-03-05T07:38:37;10.73;;;4.00;;
14883;SDS011;7534;50.762;7.000;2023-03-05T07:41:04;8.63;;;3.20;;
14883;SDS011;7534;50.762;7.000;2023-03-05T07:43:33;7.30;;;3.07;;
14883;SDS011;7534;50.762;7.000;2023-03-05T07:45:59;7.17;;;3.03;;
14883;SDS011;7534;50.762;7.000;2023-03-05T07:48:34;6.43;;;3.20;;
14883;SDS011;7534;50.762;7.000;2023-03-05T07:51:07;8.73;;;3.40;;
14883;SDS011;7534;50.762;7.000;2023-03-05T07:53:39;10.23;;;3.17;;
14883;SDS011;7534;50.762;7.000;2023-03-05T07:56:07;6.00;;;2.80;;
14883;SDS011;7534;50.762;7.000;2023-03-05T07:58:33;7.87;;;3.30;;
14883;SDS011;7534;50.762;7.000;2023-03-05T08:00:59;10.23;;;3.70;;
14883;SDS011;7534;50.762;7.000;2023-03-05T08:03:25;7.17;;;2.90;;
14883;SDS011;7534;50.762;7.000;2023-03-05T08:05:50;6.73;;;2.70;;
14883;SDS011;7534;50.762;7.000;2023-03-05T08:08:16;5.67;;;2.80;;
14883;SDS011;7534;50.762;7.000;2023-03-05T08:10:42;7.03;;;2.83;;
14883;SDS011;7534;50.762;7.000;2023-03-05T08:13:08;5.53;;;2.90;;
14883;SDS011;7534;50.762;7.000;2023-03-05T08:15:35;7.97;;;3.27;;
14883;SDS011;7534;50.762;7.000;2023-03-05T08:18:02;6.53;;;3.17;;
14883;SDS011;7534;50.762;7.000;2023-03-05T08:20:27;5.77;;;2.80;;
14883;SDS011;7534;50.762;7.000;2023-03-05T08:22:53;9.67;;;3.00;;
14883;SDS011;7534;50.762;7.000;2023-03-05T08:25:19;5.97;;;2.87;;
14883;SDS011;7534;50.762;7.000;2023-03-05T08:27:45;8.93;;;3.03;;
14883;SDS011;7534;50.762;7.000;2023-03-05T08:30:14;5.37;;;2.87;;
14883;SDS011;7534;50.762;7.000;2023-03-05T08:32:46;6.50;;;3.23;;
14883;SDS011;7534;50.762;7.000;2023-03-05T08:35:13;5.67;;;2.80;;
14883;SDS011;7534;50.762;7.000;2023-03-05T08:37:39;7.93;;;3.00;;
14883;SDS011;7534;50.762;7.000;2023-03-05T08:40:05;7.20;;;3.10;;
14883;SDS011;7534;50.762;7.000;2023-03-05T08:42:32;9.37;;;3.50;;
14883;SDS011;7534;50.762;7.000;2023-03-05T08:44:58;6.13;;;3.30;;
14883;SDS011;7534;50.762;7.000;2023-03-05T08:47:23;5.47;;;3.20;;
14883;SDS011;7534;50.762;7.000;2023-03-05T08:49:50;6.77;;;3.40;;
14883;SDS011;7534;50.762;7.000;2023-03-05T08:52:19;5.87;;;3.50;;
14883;SDS011;7534;50.762;7.000;2023-03-05T08:54:51;7.60;;;3.80;;
14883;SDS011;7534;50.762;7.000;2023-03-05T08:57:17;6.90;;;3.50;;
14883;SDS011;7534;50.762;7.000;2023-03-05T08:59:42;8.73;;;3.83;;
14883;SDS011;7534;50.762;7.000;2023-03-05T09:02:11;6.93;;;3.37;;
14883;SDS011;7534;50.762;7.000;2023-03-05T09:04:38;9.27;;;3.80;;
14883;SDS011;7534;50.762;7.000;2023-03-05T09:07:04;10.37;;;3.83;;
14883;SDS011;7534;50.762;7.000;2023-03-05T09:09:30;7.57;;;3.50;;
14883;SDS011;7534;50.762;7.000;2023-03-05T09:11:57;10.27;;;3.77;;
14883;SDS011;7534;50.762;7.000;2023-03-05T09:14:24;8.63;;;3.97;;
14883;SDS011;7534;50.762;7.000;2023-03-05T09:16:52;9.60;;;4.27;;
14883;SDS011;7534;50.762;7.000;2023-03-05T09:19:18;9.00;;;4.00;;
14883;SDS011;7534;50.762;7.000;2023-03-05T09:21:43;8.90;;;4.13;;
14883;SDS011;7534;50.762;7.000;2023-03-05T09:24:09;8.53;;;4.17;;
14883;SDS011;7534;50.762;7.000;2023-03-05T09:26:38;6.77;;;3.53;;
14883;SDS011;7534;50.762;7.000;2023-03-05T09:29:05;9.47;;;4.10;;
14883;SDS011;7534;50.762;7.000;2023-03-05T09:31:32;8.27;;;3.50;;
14883;SDS011;7534;50.762;7.000;2023-03-05T09:33:59;6.70;;;3.70;;
14883;SDS011;7534;50.762;7.000;2023-03-05T09:36:27;5.30;;;3.47;;
14883;SDS011;7534;50.762;7.000;2023-03-05T09:38:56;7.43;;;3.80;;
14883;SDS011;7534;50.762;7.000;2023-03-05T09:46:50;7.13;;;3.80;;
14883;SDS011;7534;50.762;7.000;2023-03-05T09:52:44;4.97;;;3.10;;
14883;SDS011;7534;50.762;7.000;2023-03-05T09:55:31;6.80;;;3.40;;
14883;SDS011;7534;50.762;7.000;2023-03-05T09:58:05;8.63;;;3.50;;
14883;SDS011;7534;50.762;7.000;2023-03-05T10:00:47;4.57;;;2.90;;
14883;SDS011;7534;50.762;7.000;2023-03-05T10:08:51;4.67;;;3.10;;
14883;SDS011;7534;50.762;7.000;2023-03-05T10:11:29;7.03;;;3.20;;
14883;SDS011;7534;50.762;7.000;2023-03-05T10:20:33;7.43;;;2.60;;
14883;SDS011;7534;50.762;7.000;2023-03-05T10:23:20;3.57;;;2.20;;
14883;SDS011;7534;50.762;7.000;2023-03-05T10:32:39;4.33;;;2.20;;
14883;SDS011;7534;50.762;7.000;2023-03-05T10:35:16;3.20;;;2.20;;
14883;SDS011;7534;50.762;7.000;2023-03-05T10:41:22;4.43;;;2.17;;
14883;SDS011;7534;50.762;7.000;2023-03-05T10:44:20;8.10;;;2.67;;
14883;SDS011;7534;50.762;7.000;2023-03-05T10:47:14;5.10;;;2.67;;
14883;SDS011;7534;50.762;7.000;2023-03-05T10:50:22;5.57;;;2.87;;
14883;SDS011;7534;50.762;7.000;2023-03-05T10:55:32;4.13;;;2.40;;
14883;SDS011;7534;50.762;7.000;2023-03-05T10:58:00;4.93;;;2.63;;
14883;SDS011;7534;50.762;7.000;2023-03-05T11:00:35;4.57;;;3.23;;
14883;SDS011;7534;50.762;7.000;2023-03-05T11:03:02;4.37;;;2.77;;
14883;SDS011;7534;50.762;7.000;2023-03-05T11:05:49;4.67;;;2.87;;
14883;SDS011;7534;50.762;7.000;2023-03-05T11:16:31;5.27;;;4.00;;
14883;SDS011;7534;50.762;7.000;2023-03-05T11:21:38;5.13;;;3.90;;
14883;SDS011;7534;50.762;7.000;2023-03-05T11:24:12;5.63;;;3.23;;
14883;SDS011;7534;50.762;7.000;2023-03-05T11:26:47;6.90;;;3.67;;
14883;SDS011;7534;50.762;7.000;2023-03-05T11:29:21;5.93;;;3.70;;
14883;SDS011;7534;50.762;7.000;2023-03-05T11:31:52;7.83;;;4.00;;
14883;SDS011;7534;50.762;7.000;2023-03-05T11:39:21;6.33;;;4.50;;
14883;SDS011;7534;50.762;7.000;2023-03-05T11:49:46;10.80;;;6.43;;
14883;SDS011;7534;50.762;7.000;2023-03-05T11:52:21;9.67;;;6.40;;
14883;SDS011;7534;50.762;7.000;2023-03-05T11:55:03;9.20;;;6.97;;
14883;SDS011;7534;50.762;7.000;2023-03-05T11:57:49;7.27;;;5.37;;
14883;SDS011;7534;50.762;7.000;2023-03-05T12:00:43;10.27;;;6.80;;
14883;SDS011;7534;50.762;7.000;2023-03-05T12:03:14;7.43;;;6.43;;
14883;SDS011;7534;50.762;7.000;2023-03-05T12:05:46;8.37;;;5.67;;
14883;SDS011;7534;50.762;7.000;2023-03-05T12:08:23;5.67;;;4.87;;
14883;SDS011;7534;50.762;7.000;2023-03-05T12:10:56;5.67;;;4.80;;
14883;SDS011;7534;50.762;7.000;2023-03-05T12:13:49;6.77;;;4.67;;
14883;SDS011;7534;50.762;7.000;2023-03-05T12:21:56;5.63;;;4.93;;
14883;SDS011;7534;50.762;7.000;2023-03-05T12:32:04;8.87;;;7.23;;
14883;SDS011;7534;50.762;7.000;2023-03-05T12:42:57;7.13;;;6.43;;
14883;SDS011;7534;50.762;7.000;2023-03-05T12:45:26;8.10;;;6.77;;
14883;SDS011;7534;50.762;7.000;2023-03-05T12:58:39;8.13;;;6.80;;
14883;SDS011;7534;50.762;7.000;2023-03-05T13:04:21;7.30;;;6.60;;
14883;SDS011;7534;50.762;7.000;2023-03-05T13:06:58;8.73;;;7.43;;
14883;SDS011;7534;50.762;7.000;2023-03-05T13:09:39;9.33;;;6.17;;
14883;SDS011;7534;50.762;7.000;2023-03-05T13:12:17;8.10;;;5.90;;
14883;SDS011;7534;50.762;7.000;2023-03-05T13:14:47;6.70;;;5.97;;
14883;SDS011;7534;50.762;7.000;2023-03-05T13:17:36;9.10;;;6.63;;
14883;SDS011;7534;50.762;7.000;2023-03-05T13:20:30;8.67;;;6.27;;
14883;SDS011;7534;50.762;7.000;2023-03-05T13:28:36;9.63;;;7.17;;
14883;SDS011;7534;50.762;7.000;2023-03-05T13:31:09;7.63;;;6.83;;
14883;SDS011;7534;50.762;7.000;2023-03-05T13:34:07;9.53;;;6.53;;
14883;SDS011;7534;50.762;7.000;2023-03-05T13:36:38;7.03;;;6.33;;
14883;SDS011;7534;50.762;7.000;2023-03-05T13:39:16;8.83;;;6.80;;
14883;SDS011;7534;50.762;7.000;2023-03-05T13:42:24;8.00;;;6.43;;
14883;SDS011;7534;50.762;7.000;2023-03-05T13:45:01;9.53;;;7.30;;
14883;SDS011;7534;50.762;7.000;2023-03-05T13:47:54;9.37;;;5.97;;
14883;SDS011;7534;50.762;7.000;2023-03-05T13:50:26;13.33;;;9.17;;
14883;SDS011;7534;50.762;7.000;2023-03-05T13:53:15;8.93;;;6.60;;
14883;SDS011;7534;50.762;7.000;2023-03-05T13:55:49;7.07;;;6.37;;
14883;SDS011;7534;50.762;7.000;2023-03-05T14:01:13;8.57;;;6.47;;
14883;SDS011;7534;50.762;7.000;2023-03-05T14:03:47;8.60;;;7.33;;
14883;SDS011;7534;50.762;7.000;2023-03-05T14:06:20;8.93;;;7.10;;
14883;SDS011;7534;50.762;7.000;2023-03-05T14:08:59;10.97;;;7.67;;
14883;SDS011;7534;50.762;7.000;2023-03-05T14:11:54;14.63;;;9.17;;
14883;SDS011;7534;50.762;7.000;2023-03-05T14:14:29;15.57;;;10.00;;
14883;SDS011;7534;50.762;7.000;2023-03-05T14:20:18;7.67;;;6.70;;
14883;SDS011;7534;50.762;7.000;2023-03-05T14:22:56;7.00;;;6.30;;
14883;SDS011;7534;50.762;7.000;2023-03-05T14:27:53;10.37;;;7.30;;
14883;SDS011;7534;50.762;7.000;2023-03-05T14:30:22;9.20;;;7.23;;
14883;SDS011;7534;50.762;7.000;2023-03-05T14:32:50;8.10;;;7.30;;
14883;SDS011;7534;50.762;7.000;2023-03-05T14:35:20;9.23;;;7.10;;
14883;SDS011;7534;50.762;7.000;2023-03-05T14:37:51;8.33;;;6.43;;
14883;SDS011;7534;50.762;7.000;2023-03-05T14:40:22;7.47;;;6.67;;
14883;SDS011;7534;50.762;7.000;2023-03-05T14:42:53;10.15;;;7.32;;
14883;SDS011;7534;50.762;7.000;2023-03-05T14:45:30;8.13;;;7.33;;
14883;SDS011;7534;50.762;7.000;2023-03-05T14:48:03;9.33;;;7.00;;
14883;SDS011;7534;50.762;7.000;2023-03-05T14:50:35;8.13;;;7.00;;
14883;SDS011;7534;50.762;7.000;2023-03-05T14:53:17;9.37;;;6.47;;
14883;SDS011;7534;50.762;7.000;2023-03-05T14:55:48;7.53;;;6.73;;
14883;SDS011;7534;50.762;7.000;2023-03-05T14:58:21;8.60;;;6.37;;
14883;SDS011;7534;50.762;7.000;2023-03-05T15:00:52;7.67;;;6.33;;
14883;SDS011;7534;50.762;7.000;2023-03-05T15:03:20;7.63;;;6.80;;
14883;SDS011;7534;50.762;7.000;2023-03-05T15:05:51;6.00;;;5.40;;
14883;SDS011;7534;50.762;7.000;2023-03-05T15:08:24;5.77;;;5.03;;
14883;SDS011;7534;50.762;7.000;2023-03-05T15:10:53;5.70;;;5.20;;
14883;SDS011;7534;50.762;7.000;2023-03-05T15:13:19;6.30;;;4.70;;
14883;SDS011;7534;50.762;7.000;2023-03-05T15:15:46;6.27;;;5.67;;
14883;SDS011;7534;50.762;7.000;2023-03-05T15:18:16;8.77;;;7.20;;
14883;SDS011;7534;50.762;7.000;2023-03-05T15:20:46;6.47;;;5.83;;
14883;SDS011;7534;50.762;7.000;2023-03-05T15:23:14;7.03;;;6.10;;
14883;SDS011;7534;50.762;7.000;2023-03-05T15:25:40;7.03;;;5.57;;
14883;SDS011;7534;50.762;7.000;2023-03-05T15:28:06;5.70;;;5.10;;
14883;SDS011;7534;50.762;7.000;2023-03-05T15:30:33;6.70;;;5.60;;
14883;SDS011;7534;50.762;7.000;2023-03-05T15:33:04;5.23;;;4.50;;
14883;SDS011;7534;50.762;7.000;2023-03-05T15:35:34;6.87;;;5.00;;
14883;SDS011;7534;50.762;7.000;2023-03-05T15:38:00;4.90;;;4.40;;
14883;SDS011;7534;50.762;7.000;2023-03-05T15:40:26;4.87;;;4.47;;
14883;SDS011;7534;50.762;7.000;2023-03-05T15:42:53;5.10;;;4.60;;
14883;SDS011;7534;50.762;7.000;2023-03-05T15:45:20;6.77;;;6.10;;
14883;SDS011;7534;50.762;7.000;2023-03-05T15:47:47;6.17;;;5.57;;
14883;SDS011;7534;50.762;7.000;2023-03-05T15:50:15;5.40;;;4.63;;
14883;SDS011;7534;50.762;7.000;2023-03-05T15:52:41;5.57;;;4.80;;
14883;SDS011;7534;50.762;7.000;2023-03-05T15:55:08;5.40;;;4.90;;
14883;SDS011;7534;50.762;7.000;2023-03-05T15:57:35;5.20;;;4.70;;
14883;SDS011;7534;50.762;7.000;2023-03-05T16:00:06;5.43;;;4.63;;
14883;SDS011;7534;50.762;7.000;2023-03-05T16:02:33;6.10;;;4.43;;
14883;SDS011;7534;50.762;7.000;2023-03-05T16:04:59;7.10;;;4.97;;
14883;SDS011;7534;50.762;7.000;2023-03-05T16:07:25;5.30;;;4.80;;
14883;SDS011;7534;50.762;7.000;2023-03-05T16:09:51;6.30;;;5.27;;
14883;SDS011;7534;50.762;7.000;2023-03-05T16:12:19;5.67;;;5.00;;
14883;SDS011;7534;50.762;7.000;2023-03-05T16:14:52;9.37;;;5.83;;
14883;SDS011;7534;50.762;7.000;2023-03-05T16:17:18;8.90;;;5.93;;
14883;SDS011;7534;50.762;7.000;2023-03-05T16:19:48;6.43;;;5.43;;
14883;SDS011;7534;50.762;7.000;2023-03-05T16:22:18;6.90;;;5.47;;
14883;SDS011;7534;50.762;7.000;2023-03-05T16:24:44;6.77;;;6.00;;
14883;SDS011;7534;50.762;7.000;2023-03-05T16:27:10;6.63;;;5.90;;
14883;SDS011;7534;50.762;7.000;2023-03-05T16:29:36;8.80;;;6.40;;
14883;SDS011;7534;50.762;7.000;2023-03-05T16:32:03;6.43;;;5.33;;
14883;SDS011;7534;50.762;7.000;2023-03-05T16:34:29;7.60;;;5.47;;
14883;SDS011;7534;50.762;7.000;2023-03-05T16:36:58;6.73;;;5.83;;
14883;SDS011;7534;50.762;7.000;2023-03-05T16:39:25;8.30;;;5.93;;
14883;SDS011;7534;50.762;7.000;2023-03-05T16:41:51;7.30;;;5.80;;
14883;SDS011;7534;50.762;7.000;2023-03-05T16:44:18;7.47;;;5.90;;
14883;SDS011;7534;50.762;7.000;2023-03-05T16:46:45;10.27;;;5.60;;
14883;SDS011;7534;50.762;7.000;2023-03-05T16:49:14;6.50;;;5.33;;
14883;SDS011;7534;50.762;7.000;2023-03-05T16:51:40;8.17;;;6.73;;
14883;SDS011;7534;50.762;7.000;2023-03-05T16:54:06;8.07;;;6.20;;
14883;SDS011;7534;50.762;7.000;2023-03-05T16:56:32;7.37;;;6.47;;
14883;SDS011;7534;50.762;7.000;2023-03-05T16:58:58;7.50;;;6.57;;
14883;SDS011;7534;50.762;7.000;2023-03-05T17:01:23;8.43;;;7.53;;
14883;SDS011;7534;50.762;7.000;2023-03-05T17:03:50;8.20;;;6.83;;
14883;SDS011;7534;50.762;7.000;2023-03-05T17:06:21;11.47;;;10.27;;